Main page
METAR-TAF:

METAR-TAF

Airports :

Gloucestershire Airport

Gloucester, England

latitude: 51-54N, longitude: 002-10W, elevation: 29 m

Current weather observation

The report was made 5 hours and 32 minutes ago, at 17:50 UTC
Wind 6 kt from the South
Temperature 21°C
Humidity 38%
Pressure 1000 hPa
Visibility 10 km or more
no clouds below 1500 m and no cumulonimbus

METAR: EGBJ 221750Z 18006KT CAVOK 21/06 Q1000

Time: 00:22 (23:22 UTC)

Forecast

The report was made 9 hours and 23 minutes ago, at 13:59 UTC
Forecast valid from 22 at 15 UTC to 22 at 19 UTC
Wind 8 kt from the East/Southeast
Visibility 10 km or more
no clouds below 1500 m and no cumulonimbus

TAF: EGBJ 221359Z 2215/2219 12008KT CAVOK

Weather observations and forecasts of more than 4000 airports (METAR and TAF reports).

The available stations are represented by yellow and red dots on the map.

Hover mouse over dot to see the name of the station.

Then click to see weather observations and forecasts.

To change the map : click on the green buttons with a black cross to zoom in, on the green button with a dash to zoom out, or on the green arrows for adjacent maps.


METAR-TAF: